Time;durP1;ratioP1;P1;durP2;ratioP2;P2;SDS_P1;SDS_P2;PMS_P1;PMS_P2;Temp;Humidity;BMP_temperature;BMP_pressure;BME280_temperature;BME280_humidity;BME280_pressure;Samples;Min_cycle;Max_cycle;Signal;HPM_P1;HPM_P2
2021/12/21 14:29:42;;;;;;;;;;;;;;;;;;5165479;27;19912;-91
2021/12/21 14:34:40;;;;;;;;;;;-9.20;99.90;;;;;;5163596;27;20359;-91
2021/12/21 14:37:07;;;;;;;;;;;-9.80;99.90;;;;;;5143035;27;19915;-92
2021/12/21 14:39:33;;;;;;;;;;;-9.80;99.90;;;;;;5146497;27;20259;-92
2021/12/21 14:42:00;;;;;;;;;;;-9.70;99.90;;;;;;5150330;27;19914;-92
2021/12/21 14:44:27;;;;;;;;;;;-9.70;99.90;;;;;;5157395;27;19907;-92
2021/12/21 14:47:00;;;;;;;;;;;-9.60;99.90;;;;;;5147192;27;19908;-92
2021/12/21 14:49:31;;;;;;;;;;;-9.60;99.90;;;;;;5147647;27;19919;-91
2021/12/21 14:51:59;;;;;;;;;;;-9.50;99.90;;;;;;5166914;27;20422;-92
2021/12/21 14:54:28;;;;;;;;;;;-9.50;99.90;;;;;;5156647;27;19911;-92
2021/12/21 14:57:01;;;;;;;;;;;-9.40;99.90;;;;;;5147018;27;19954;-94
2021/12/21 14:59:35;;;;;;;;;;;-9.40;99.90;;;;;;5149205;27;19952;-91
2021/12/21 15:02:05;;;;;;;;;;;-9.40;99.90;;;;;;5129364;27;19956;-91
2021/12/21 15:04:31;;;;;;;;;;;-9.40;99.90;;;;;;5146485;27;19915;-91
2021/12/21 15:06:57;;;;;;;;;;;-9.40;99.90;;;;;;5147602;27;20328;-92
2021/12/21 15:09:26;;;;;;;;;;;-9.40;99.90;;;;;;5142673;27;19912;-90
2021/12/21 15:11:54;;;;;;;;;;;-9.40;99.90;;;;;;5148209;27;19911;-91
2021/12/21 15:14:20;;;;;;;;;;;-9.50;99.90;;;;;;5147067;27;20005;-92
2021/12/21 15:16:46;;;;;;;;;;;-9.50;99.90;;;;;;5149727;27;19946;-94
2021/12/21 15:19:12;;;;;;;;;;;-9.60;99.90;;;;;;5147020;27;19967;-92
2021/12/21 15:21:38;;;;;;;;;;;-9.50;99.90;;;;;;5151083;27;19921;-92
2021/12/21 15:24:04;;;;;;;;;;;-9.60;99.90;;;;;;5167105;27;19913;-91
2021/12/21 15:26:30;;;;;;;;;;;-9.60;99.90;;;;;;5149973;27;20320;-91
2021/12/21 15:28:56;;;;;;;;;;;-9.60;99.90;;;;;;5134106;27;19972;-92
2021/12/21 15:31:22;;;;;;;;;;;-9.60;99.90;;;;;;5133909;27;19911;-92
2021/12/21 15:33:47;;;;;;;;;;;-9.70;99.90;;;;;;5135665;27;19907;-91
2021/12/21 15:36:13;;;;;;;;;;;-9.60;99.90;;;;;;5135131;27;19994;-91
2021/12/21 15:38:39;;;;;;;;;;;-9.70;99.90;;;;;;5121579;28;19999;-92
2021/12/21 15:41:04;;;;;;;;;;;-9.70;99.90;;;;;;5100494;28;19915;-91
2021/12/21 15:43:37;;;;;;;;;;;-9.70;99.90;;;;;;5100573;28;19908;-91
2021/12/21 15:46:03;;;;;;;;;;;-9.70;99.90;;;;;;5099936;28;20265;-92
2021/12/21 15:48:29;;;;;;;;;;;-9.70;99.90;;;;;;5102739;28;19916;-91
2021/12/21 15:50:56;;;;;;;;;;;-9.70;99.90;;;;;;5115680;27;20271;-93
2021/12/21 15:53:22;;;;;;;;;;;-9.70;99.90;;;;;;5125028;27;19915;-94
2021/12/21 15:55:48;;;;;;;;;;;-9.70;99.90;;;;;;5122888;27;19943;-94
2021/12/21 15:58:14;;;;;;;;;;;-9.70;99.90;;;;;;5104243;27;19911;-94
2021/12/21 16:00:40;;;;;;;;;;;-9.70;99.90;;;;;;5121795;27;19915;-94
2021/12/21 16:03:06;;;;;;;;;;;-9.70;99.90;;;;;;5121879;27;19914;-94
2021/12/21 16:05:31;;;;;;;;;;;-9.70;99.90;;;;;;5121898;27;19955;-94
2021/12/21 16:07:57;;;;;;;;;;;-9.70;99.90;;;;;;5129196;27;19934;-92
2021/12/21 16:10:23;;;;;;;;;;;-9.70;99.90;;;;;;5141923;28;19895;-92
2021/12/21 16:12:48;;;;;;;;;;;-9.70;99.90;;;;;;5110964;28;19912;-94
2021/12/21 16:15:14;;;;;;;;;;;-9.80;99.90;;;;;;5103974;28;19999;-94
2021/12/21 16:17:40;;;;;;;;;;;-9.80;99.90;;;;;;5101463;28;19908;-94
2021/12/21 16:20:07;;;;;;;;;;;-9.80;99.90;;;;;;5099776;28;19908;-95
2021/12/21 16:37:01;;;;;;;;;;;;;;;;;;5100791;27;19916;-94
2021/12/21 16:39:27;;;;;;;;;;;-10.40;99.90;;;;;;5093835;28;19956;-94
2021/12/21 16:41:53;;;;;;;;;;;-10.50;99.90;;;;;;5095140;28;19918;-94
